sensor_id;sensor_type;location;lat;lon;timestamp;temperature;humidity
68215;DHT22;55036;52.138;5.236;2022-09-03T00:01:49;19.50;41.70
68215;DHT22;55036;52.138;5.236;2022-09-03T00:04:26;19.30;41.90
68215;DHT22;55036;52.138;5.236;2022-09-03T00:07:02;19.40;41.80
68215;DHT22;55036;52.138;5.236;2022-09-03T00:09:38;19.50;41.50
68215;DHT22;55036;52.138;5.236;2022-09-03T00:12:20;19.60;41.50
68215;DHT22;55036;52.138;5.236;2022-09-03T00:14:57;19.50;41.60
68215;DHT22;55036;52.138;5.236;2022-09-03T00:17:33;19.40;42.00
68215;DHT22;55036;52.138;5.236;2022-09-03T00:20:34;19.10;42.50
68215;DHT22;55036;52.138;5.236;2022-09-03T00:23:06;19.20;42.50
68215;DHT22;55036;52.138;5.236;2022-09-03T00:28:03;19.20;42.50
68215;DHT22;55036;52.138;5.236;2022-09-03T00:30:32;19.20;42.60
68215;DHT22;55036;52.138;5.236;2022-09-03T00:33:06;19.10;42.70
68215;DHT22;55036;52.138;5.236;2022-09-03T00:36:15;19.10;42.80
68215;DHT22;55036;52.138;5.236;2022-09-03T00:38:44;19.00;42.90
68215;DHT22;55036;52.138;5.236;2022-09-03T00:41:36;18.90;43.00
68215;DHT22;55036;52.138;5.236;2022-09-03T00:47:23;18.90;43.30
68215;DHT22;55036;52.138;5.236;2022-09-03T00:50:28;18.90;43.40
68215;DHT22;55036;52.138;5.236;2022-09-03T01:00:51;18.90;43.60
68215;DHT22;55036;52.138;5.236;2022-09-03T01:03:40;18.80;43.50
68215;DHT22;55036;52.138;5.236;2022-09-03T01:06:16;18.80;43.80
68215;DHT22;55036;52.138;5.236;2022-09-03T01:14:37;18.70;43.90
68215;DHT22;55036;52.138;5.236;2022-09-03T01:20:13;18.60;44.30
68215;DHT22;55036;52.138;5.236;2022-09-03T01:39:24;18.60;44.30
68215;DHT22;55036;52.138;5.236;2022-09-03T01:42:11;18.60;44.50
68215;DHT22;55036;52.138;5.236;2022-09-03T01:44:56;18.60;44.50
68215;DHT22;55036;52.138;5.236;2022-09-03T01:47:59;18.50;44.90
68215;DHT22;55036;52.138;5.236;2022-09-03T01:56:10;18.50;44.70
68215;DHT22;55036;52.138;5.236;2022-09-03T01:58:55;18.50;44.60
68215;DHT22;55036;52.138;5.236;2022-09-03T02:01:42;18.60;44.70
68215;DHT22;55036;52.138;5.236;2022-09-03T02:04:23;18.50;44.80
68215;DHT22;55036;52.138;5.236;2022-09-03T02:06:51;18.50;44.80
68215;DHT22;55036;52.138;5.236;2022-09-03T02:09:19;18.50;44.80
68215;DHT22;55036;52.138;5.236;2022-09-03T02:11:55;18.40;44.90
68215;DHT22;55036;52.138;5.236;2022-09-03T02:14:26;18.40;44.90
68215;DHT22;55036;52.138;5.236;2022-09-03T02:16:56;18.40;44.90
68215;DHT22;55036;52.138;5.236;2022-09-03T02:19:26;18.50;44.80
68215;DHT22;55036;52.138;5.236;2022-09-03T02:21:55;18.40;45.10
68215;DHT22;55036;52.138;5.236;2022-09-03T02:24:23;18.40;44.90
68215;DHT22;55036;52.138;5.236;2022-09-03T02:26:52;18.40;45.10
68215;DHT22;55036;52.138;5.236;2022-09-03T02:29:19;18.30;45.40
68215;DHT22;55036;52.138;5.236;2022-09-03T02:31:46;18.30;45.40
68215;DHT22;55036;52.138;5.236;2022-09-03T02:34:13;18.20;45.60
68215;DHT22;55036;52.138;5.236;2022-09-03T02:36:45;18.20;45.80
68215;DHT22;55036;52.138;5.236;2022-09-03T02:39:14;18.00;45.90
68215;DHT22;55036;52.138;5.236;2022-09-03T02:41:41;18.10;45.90
68215;DHT22;55036;52.138;5.236;2022-09-03T02:44:28;18.00;46.10
68215;DHT22;55036;52.138;5.236;2022-09-03T02:47:00;18.00;46.00
68215;DHT22;55036;52.138;5.236;2022-09-03T02:49:28;17.90;46.40
68215;DHT22;55036;52.138;5.236;2022-09-03T02:52:07;17.90;46.30
68215;DHT22;55036;52.138;5.236;2022-09-03T02:54:38;17.90;46.00
68215;DHT22;55036;52.138;5.236;2022-09-03T02:57:10;17.90;46.40
68215;DHT22;55036;52.138;5.236;2022-09-03T02:59:37;17.80;46.50
68215;DHT22;55036;52.138;5.236;2022-09-03T03:02:05;17.80;47.00
68215;DHT22;55036;52.138;5.236;2022-09-03T03:04:32;17.80;46.80
68215;DHT22;55036;52.138;5.236;2022-09-03T03:06:59;17.80;47.00
68215;DHT22;55036;52.138;5.236;2022-09-03T03:09:25;17.90;46.80
68215;DHT22;55036;52.138;5.236;2022-09-03T03:11:52;17.90;46.60
68215;DHT22;55036;52.138;5.236;2022-09-03T03:14:21;17.90;46.90
68215;DHT22;55036;52.138;5.236;2022-09-03T03:16:48;17.80;46.80
68215;DHT22;55036;52.138;5.236;2022-09-03T03:19:16;17.90;46.80
68215;DHT22;55036;52.138;5.236;2022-09-03T03:21:43;17.90;46.80
68215;DHT22;55036;52.138;5.236;2022-09-03T03:24:10;17.80;46.80
68215;DHT22;55036;52.138;5.236;2022-09-03T03:26:36;17.90;46.80
68215;DHT22;55036;52.138;5.236;2022-09-03T03:29:03;17.80;47.10
68215;DHT22;55036;52.138;5.236;2022-09-03T03:31:31;17.80;46.70
68215;DHT22;55036;52.138;5.236;2022-09-03T03:34:00;17.90;46.60
68215;DHT22;55036;52.138;5.236;2022-09-03T03:36:30;17.90;46.50
68215;DHT22;55036;52.138;5.236;2022-09-03T03:38:58;17.90;46.70
68215;DHT22;55036;52.138;5.236;2022-09-03T03:41:27;17.80;46.80
68215;DHT22;55036;52.138;5.236;2022-09-03T03:43:58;17.90;46.80
68215;DHT22;55036;52.138;5.236;2022-09-03T03:46:29;17.80;47.00
68215;DHT22;55036;52.138;5.236;2022-09-03T03:48:56;17.80;47.00
68215;DHT22;55036;52.138;5.236;2022-09-03T03:51:23;17.80;46.80
68215;DHT22;55036;52.138;5.236;2022-09-03T03:53:56;17.80;46.90
68215;DHT22;55036;52.138;5.236;2022-09-03T03:56:27;17.70;46.80
68215;DHT22;55036;52.138;5.236;2022-09-03T03:58:54;17.70;46.90
68215;DHT22;55036;52.138;5.236;2022-09-03T04:01:23;17.70;47.10
68215;DHT22;55036;52.138;5.236;2022-09-03T04:03:53;17.60;47.40
68215;DHT22;55036;52.138;5.236;2022-09-03T04:06:22;17.50;47.50
68215;DHT22;55036;52.138;5.236;2022-09-03T04:08:49;17.50;47.60
68215;DHT22;55036;52.138;5.236;2022-09-03T04:11:18;17.60;47.60
68215;DHT22;55036;52.138;5.236;2022-09-03T04:13:46;17.50;47.70
68215;DHT22;55036;52.138;5.236;2022-09-03T04:16:15;17.40;48.50
68215;DHT22;55036;52.138;5.236;2022-09-03T04:18:44;17.40;48.10
68215;DHT22;55036;52.138;5.236;2022-09-03T04:21:13;17.30;48.40
68215;DHT22;55036;52.138;5.236;2022-09-03T04:23:42;17.30;48.50
68215;DHT22;55036;52.138;5.236;2022-09-03T04:26:11;17.30;48.40
68215;DHT22;55036;52.138;5.236;2022-09-03T04:28:38;17.30;48.60
68215;DHT22;55036;52.138;5.236;2022-09-03T04:31:09;17.20;48.90
68215;DHT22;55036;52.138;5.236;2022-09-03T04:33:37;17.20;48.90
68215;DHT22;55036;52.138;5.236;2022-09-03T04:36:19;17.20;48.80
68215;DHT22;55036;52.138;5.236;2022-09-03T04:38:47;17.20;49.00
68215;DHT22;55036;52.138;5.236;2022-09-03T04:41:22;17.20;48.70
68215;DHT22;55036;52.138;5.236;2022-09-03T04:43:51;17.20;49.10
68215;DHT22;55036;52.138;5.236;2022-09-03T04:46:19;17.10;49.00
68215;DHT22;55036;52.138;5.236;2022-09-03T04:48:48;17.10;49.30
68215;DHT22;55036;52.138;5.236;2022-09-03T04:51:19;17.20;48.80
68215;DHT22;55036;52.138;5.236;2022-09-03T04:53:47;17.30;48.60
68215;DHT22;55036;52.138;5.236;2022-09-03T04:56:24;17.40;48.60
68215;DHT22;55036;52.138;5.236;2022-09-03T04:59:08;17.40;48.60
68215;DHT22;55036;52.138;5.236;2022-09-03T05:01:37;17.40;48.50
68215;DHT22;55036;52.138;5.236;2022-09-03T05:04:05;17.30;48.70
68215;DHT22;55036;52.138;5.236;2022-09-03T05:06:33;17.20;48.80
68215;DHT22;55036;52.138;5.236;2022-09-03T05:09:00;17.20;49.00
68215;DHT22;55036;52.138;5.236;2022-09-03T05:11:28;17.00;49.30
68215;DHT22;55036;52.138;5.236;2022-09-03T05:13:56;17.00;49.50
68215;DHT22;55036;52.138;5.236;2022-09-03T05:16:24;17.00;49.80
68215;DHT22;55036;52.138;5.236;2022-09-03T05:18:53;17.00;49.50
68215;DHT22;55036;52.138;5.236;2022-09-03T05:21:21;17.10;49.30
68215;DHT22;55036;52.138;5.236;2022-09-03T05:23:50;17.00;49.40
68215;DHT22;55036;52.138;5.236;2022-09-03T05:26:28;17.00;49.90
68215;DHT22;55036;52.138;5.236;2022-09-03T05:28:57;17.00;50.00
68215;DHT22;55036;52.138;5.236;2022-09-03T05:31:26;16.90;50.00
68215;DHT22;55036;52.138;5.236;2022-09-03T05:33:56;16.80;50.00
68215;DHT22;55036;52.138;5.236;2022-09-03T05:36:29;16.80;50.40
68215;DHT22;55036;52.138;5.236;2022-09-03T05:38:57;16.80;50.30
68215;DHT22;55036;52.138;5.236;2022-09-03T05:41:25;16.80;51.20
68215;DHT22;55036;52.138;5.236;2022-09-03T05:43:53;16.90;50.40
68215;DHT22;55036;52.138;5.236;2022-09-03T05:46:22;17.00;50.10
68215;DHT22;55036;52.138;5.236;2022-09-03T05:48:53;17.10;49.90
68215;DHT22;55036;52.138;5.236;2022-09-03T05:51:20;17.00;50.20
68215;DHT22;55036;52.138;5.236;2022-09-03T05:53:47;17.10;50.20
68215;DHT22;55036;52.138;5.236;2022-09-03T05:56:23;17.10;50.00
68215;DHT22;55036;52.138;5.236;2022-09-03T05:58:52;17.50;49.80
68215;DHT22;55036;52.138;5.236;2022-09-03T06:01:27;18.00;48.90
68215;DHT22;55036;52.138;5.236;2022-09-03T06:04:06;18.20;47.90
68215;DHT22;55036;52.138;5.236;2022-09-03T06:06:37;18.00;48.00
68215;DHT22;55036;52.138;5.236;2022-09-03T06:09:06;18.10;47.40
68215;DHT22;55036;52.138;5.236;2022-09-03T06:11:35;18.30;47.40
68215;DHT22;55036;52.138;5.236;2022-09-03T06:14:05;18.40;47.00
68215;DHT22;55036;52.138;5.236;2022-09-03T06:16:36;18.30;47.10
68215;DHT22;55036;52.138;5.236;2022-09-03T06:19:04;18.20;47.00
68215;DHT22;55036;52.138;5.236;2022-09-03T06:21:37;18.00;47.60
68215;DHT22;55036;52.138;5.236;2022-09-03T06:24:06;18.20;47.90
68215;DHT22;55036;52.138;5.236;2022-09-03T06:26:33;18.40;47.60
68215;DHT22;55036;52.138;5.236;2022-09-03T06:29:00;18.60;46.80
68215;DHT22;55036;52.138;5.236;2022-09-03T06:31:26;18.80;47.20
68215;DHT22;55036;52.138;5.236;2022-09-03T06:33:53;18.80;46.90
68215;DHT22;55036;52.138;5.236;2022-09-03T06:36:26;18.80;47.00
68215;DHT22;55036;52.138;5.236;2022-09-03T06:38:55;18.70;47.00
68215;DHT22;55036;52.138;5.236;2022-09-03T06:41:24;18.80;46.80
68215;DHT22;55036;52.138;5.236;2022-09-03T06:43:56;19.00;46.40
68215;DHT22;55036;52.138;5.236;2022-09-03T06:46:34;19.00;45.80
68215;DHT22;55036;52.138;5.236;2022-09-03T06:49:01;19.10;46.40
68215;DHT22;55036;52.138;5.236;2022-09-03T06:51:30;19.30;46.30
68215;DHT22;55036;52.138;5.236;2022-09-03T06:54:00;19.40;45.60
68215;DHT22;55036;52.138;5.236;2022-09-03T06:56:27;19.50;45.50
68215;DHT22;55036;52.138;5.236;2022-09-03T06:58:56;19.60;45.50
68215;DHT22;55036;52.138;5.236;2022-09-03T07:01:28;19.70;45.50
68215;DHT22;55036;52.138;5.236;2022-09-03T07:04:02;19.70;45.10
68215;DHT22;55036;52.138;5.236;2022-09-03T07:06:37;19.70;45.30
68215;DHT22;55036;52.138;5.236;2022-09-03T07:09:06;19.70;45.00
68215;DHT22;55036;52.138;5.236;2022-09-03T07:11:34;19.70;45.30
68215;DHT22;55036;52.138;5.236;2022-09-03T07:14:03;19.70;45.40
68215;DHT22;55036;52.138;5.236;2022-09-03T07:16:35;19.80;45.20
68215;DHT22;55036;52.138;5.236;2022-09-03T07:19:03;19.90;44.50
68215;DHT22;55036;52.138;5.236;2022-09-03T07:21:32;20.00;44.90
68215;DHT22;55036;52.138;5.236;2022-09-03T07:24:04;20.10;44.80
68215;DHT22;55036;52.138;5.236;2022-09-03T07:26:33;20.30;43.70
68215;DHT22;55036;52.138;5.236;2022-09-03T07:29:00;20.30;43.90
68215;DHT22;55036;52.138;5.236;2022-09-03T07:31:29;20.30;43.70
68215;DHT22;55036;52.138;5.236;2022-09-03T07:33:59;20.50;44.00
68215;DHT22;55036;52.138;5.236;2022-09-03T07:36:27;20.40;43.70
68215;DHT22;55036;52.138;5.236;2022-09-03T07:39:01;20.50;43.90
68215;DHT22;55036;52.138;5.236;2022-09-03T07:41:29;20.70;43.60
68215;DHT22;55036;52.138;5.236;2022-09-03T07:43:59;20.90;43.00
68215;DHT22;55036;52.138;5.236;2022-09-03T07:46:32;20.80;42.50
68215;DHT22;55036;52.138;5.236;2022-09-03T07:49:00;20.90;43.10
68215;DHT22;55036;52.138;5.236;2022-09-03T07:51:33;21.10;42.70
68215;DHT22;55036;52.138;5.236;2022-09-03T07:54:02;21.30;42.80
68215;DHT22;55036;52.138;5.236;2022-09-03T07:56:30;21.20;41.90
68215;DHT22;55036;52.138;5.236;2022-09-03T07:58:57;21.20;42.30
68215;DHT22;55036;52.138;5.236;2022-09-03T08:01:26;21.40;42.20
68215;DHT22;55036;52.138;5.236;2022-09-03T08:03:54;21.60;42.60
68215;DHT22;55036;52.138;5.236;2022-09-03T08:06:24;21.50;42.40
68215;DHT22;55036;52.138;5.236;2022-09-03T08:09:03;21.70;41.50
68215;DHT22;55036;52.138;5.236;2022-09-03T08:11:32;21.60;41.60
68215;DHT22;55036;52.138;5.236;2022-09-03T08:14:04;21.90;42.20
68215;DHT22;55036;52.138;5.236;2022-09-03T08:16:35;22.20;41.20
68215;DHT22;55036;52.138;5.236;2022-09-03T08:19:02;22.10;40.60
68215;DHT22;55036;52.138;5.236;2022-09-03T08:21:29;22.30;41.10
68215;DHT22;55036;52.138;5.236;2022-09-03T08:23:56;22.30;40.40
68215;DHT22;55036;52.138;5.236;2022-09-03T08:26:30;22.50;39.80
68215;DHT22;55036;52.138;5.236;2022-09-03T08:28:58;22.60;40.30
68215;DHT22;55036;52.138;5.236;2022-09-03T08:31:26;22.70;40.40
68215;DHT22;55036;52.138;5.236;2022-09-03T08:33:55;22.90;39.90
68215;DHT22;55036;52.138;5.236;2022-09-03T08:36:27;23.00;38.40
68215;DHT22;55036;52.138;5.236;2022-09-03T08:38:59;22.90;39.20
68215;DHT22;55036;52.138;5.236;2022-09-03T08:47:42;23.30;39.20
68215;DHT22;55036;52.138;5.236;2022-09-03T08:50:31;23.40;38.20
68215;DHT22;55036;52.138;5.236;2022-09-03T08:53:10;23.30;37.70
68215;DHT22;55036;52.138;5.236;2022-09-03T08:55:51;23.50;38.30
68215;DHT22;55036;52.138;5.236;2022-09-03T08:58:22;23.60;37.00
68215;DHT22;55036;52.138;5.236;2022-09-03T09:09:02;24.20;36.40
68215;DHT22;55036;52.138;5.236;2022-09-03T09:11:43;24.20;36.40
68215;DHT22;55036;52.138;5.236;2022-09-03T09:17:40;24.40;35.70
68215;DHT22;55036;52.138;5.236;2022-09-03T09:20:17;24.40;35.80
68215;DHT22;55036;52.138;5.236;2022-09-03T09:22:58;24.50;36.30
68215;DHT22;55036;52.138;5.236;2022-09-03T09:25:27;24.70;35.00
68215;DHT22;55036;52.138;5.236;2022-09-03T09:28:03;24.70;35.10
68215;DHT22;55036;52.138;5.236;2022-09-03T09:30:33;24.70;35.30
68215;DHT22;55036;52.138;5.236;2022-09-03T09:33:01;24.80;35.30
68215;DHT22;55036;52.138;5.236;2022-09-03T09:35:28;25.00;34.50
68215;DHT22;55036;52.138;5.236;2022-09-03T09:37:57;24.80;34.20
68215;DHT22;55036;52.138;5.236;2022-09-03T09:40:32;24.90;34.70
68215;DHT22;55036;52.138;5.236;2022-09-03T09:43:11;25.10;33.40
68215;DHT22;55036;52.138;5.236;2022-09-03T09:45:44;25.20;34.00
68215;DHT22;55036;52.138;5.236;2022-09-03T09:48:31;25.30;33.90
68215;DHT22;55036;52.138;5.236;2022-09-03T09:51:11;25.60;34.60
68215;DHT22;55036;52.138;5.236;2022-09-03T09:53:39;25.80;34.30
68215;DHT22;55036;52.138;5.236;2022-09-03T09:56:07;25.80;33.10
68215;DHT22;55036;52.138;5.236;2022-09-03T09:58:34;25.70;33.20
68215;DHT22;55036;52.138;5.236;2022-09-03T10:01:10;25.90;31.90
68215;DHT22;55036;52.138;5.236;2022-09-03T10:03:52;25.80;32.30
68215;DHT22;55036;52.138;5.236;2022-09-03T10:06:25;25.90;32.00
68215;DHT22;55036;52.138;5.236;2022-09-03T10:09:16;25.90;33.10
68215;DHT22;55036;52.138;5.236;2022-09-03T10:11:46;26.00;32.40
68215;DHT22;55036;52.138;5.236;2022-09-03T10:14:24;26.20;32.10
68215;DHT22;55036;52.138;5.236;2022-09-03T10:17:00;26.20;31.90
68215;DHT22;55036;52.138;5.236;2022-09-03T10:19:45;25.80;32.00
68215;DHT22;55036;52.138;5.236;2022-09-03T10:22:39;26.00;31.90
68215;DHT22;55036;52.138;5.236;2022-09-03T10:25:25;26.20;31.40
68215;DHT22;55036;52.138;5.236;2022-09-03T10:27:52;26.20;31.70
68215;DHT22;55036;52.138;5.236;2022-09-03T10:30:19;26.30;30.90
68215;DHT22;55036;52.138;5.236;2022-09-03T10:33:06;26.20;31.10
68215;DHT22;55036;52.138;5.236;2022-09-03T10:35:41;26.20;31.40
68215;DHT22;55036;52.138;5.236;2022-09-03T10:38:30;26.30;31.30
68215;DHT22;55036;52.138;5.236;2022-09-03T10:41:09;26.60;30.80
68215;DHT22;55036;52.138;5.236;2022-09-03T10:52:23;27.00;30.20
68215;DHT22;55036;52.138;5.236;2022-09-03T10:55:10;27.00;30.10
68215;DHT22;55036;52.138;5.236;2022-09-03T11:00:24;26.70;30.60
68215;DHT22;55036;52.138;5.236;2022-09-03T11:05:41;26.70;30.80
68215;DHT22;55036;52.138;5.236;2022-09-03T11:11:23;26.90;30.40
68215;DHT22;55036;52.138;5.236;2022-09-03T11:13:58;27.10;30.90
68215;DHT22;55036;52.138;5.236;2022-09-03T11:16:30;27.30;30.50
68215;DHT22;55036;52.138;5.236;2022-09-03T11:19:08;27.40;30.00
68215;DHT22;55036;52.138;5.236;2022-09-03T11:21:39;27.40;30.10
68215;DHT22;55036;52.138;5.236;2022-09-03T11:24:24;27.50;29.60
68215;DHT22;55036;52.138;5.236;2022-09-03T11:27:17;27.50;31.10
68215;DHT22;55036;52.138;5.236;2022-09-03T11:30:07;27.60;30.00
68215;DHT22;55036;52.138;5.236;2022-09-03T11:38:04;27.80;29.40
68215;DHT22;55036;52.138;5.236;2022-09-03T11:40:36;28.00;29.90
68215;DHT22;55036;52.138;5.236;2022-09-03T11:43:25;28.00;29.20
68215;DHT22;55036;52.138;5.236;2022-09-03T11:53:56;28.40;29.10
68215;DHT22;55036;52.138;5.236;2022-09-03T11:56:24;28.50;29.10
68215;DHT22;55036;52.138;5.236;2022-09-03T12:01:51;28.30;28.20
68215;DHT22;55036;52.138;5.236;2022-09-03T12:04:27;28.10;29.00
68215;DHT22;55036;52.138;5.236;2022-09-03T12:07:13;27.80;29.20
68215;DHT22;55036;52.138;5.236;2022-09-03T12:15:35;28.20;29.10
68215;DHT22;55036;52.138;5.236;2022-09-03T12:18:13;28.00;28.90
68215;DHT22;55036;52.138;5.236;2022-09-03T12:20:46;28.00;29.20
68215;DHT22;55036;52.138;5.236;2022-09-03T12:23:26;28.10;29.40
68215;DHT22;55036;52.138;5.236;2022-09-03T12:25:54;28.20;29.10
68215;DHT22;55036;52.138;5.236;2022-09-03T12:28:22;28.20;29.10
68215;DHT22;55036;52.138;5.236;2022-09-03T12:30:53;28.30;29.10
68215;DHT22;55036;52.138;5.236;2022-09-03T12:33:21;28.30;28.40
68215;DHT22;55036;52.138;5.236;2022-09-03T12:35:59;28.20;28.70
68215;DHT22;55036;52.138;5.236;2022-09-03T12:38:27;28.30;29.10
68215;DHT22;55036;52.138;5.236;2022-09-03T12:40:55;28.00;28.90
68215;DHT22;55036;52.138;5.236;2022-09-03T12:43:50;28.10;29.30
68215;DHT22;55036;52.138;5.236;2022-09-03T12:46:17;28.30;29.40
68215;DHT22;55036;52.138;5.236;2022-09-03T12:49:02;28.40;29.00
68215;DHT22;55036;52.138;5.236;2022-09-03T12:51:50;28.50;29.00
68215;DHT22;55036;52.138;5.236;2022-09-03T12:54:24;28.50;28.90
68215;DHT22;55036;52.138;5.236;2022-09-03T12:56:55;28.40;28.60
68215;DHT22;55036;52.138;5.236;2022-09-03T12:59:26;28.40;28.50
68215;DHT22;55036;52.138;5.236;2022-09-03T13:01:57;28.30;28.10
68215;DHT22;55036;52.138;5.236;2022-09-03T13:04:32;28.40;28.30
68215;DHT22;55036;52.138;5.236;2022-09-03T13:07:33;28.70;28.50
68215;DHT22;55036;52.138;5.236;2022-09-03T13:09:59;28.80;28.30
68215;DHT22;55036;52.138;5.236;2022-09-03T13:12:42;28.40;28.10
68215;DHT22;55036;52.138;5.236;2022-09-03T13:15:17;28.60;28.10
68215;DHT22;55036;52.138;5.236;2022-09-03T13:21:09;29.00;27.80
68215;DHT22;55036;52.138;5.236;2022-09-03T13:27:04;28.90;27.60
68215;DHT22;55036;52.138;5.236;2022-09-03T13:35:38;29.00;28.00
68215;DHT22;55036;52.138;5.236;2022-09-03T13:43:58;29.10;27.40
68215;DHT22;55036;52.138;5.236;2022-09-03T13:46:32;29.10;27.70
68215;DHT22;55036;52.138;5.236;2022-09-03T13:49:34;29.30;26.80
68215;DHT22;55036;52.138;5.236;2022-09-03T13:52:33;29.20;27.00
68215;DHT22;55036;52.138;5.236;2022-09-03T13:55:25;29.30;26.70
68215;DHT22;55036;52.138;5.236;2022-09-03T13:57:56;29.10;27.60
68215;DHT22;55036;52.138;5.236;2022-09-03T14:00:36;29.10;27.90
68215;DHT22;55036;52.138;5.236;2022-09-03T14:03:11;29.20;28.00
68215;DHT22;55036;52.138;5.236;2022-09-03T14:09:02;29.20;27.30
68215;DHT22;55036;52.138;5.236;2022-09-03T14:11:43;29.10;27.80
68215;DHT22;55036;52.138;5.236;2022-09-03T14:14:40;29.10;27.80
68215;DHT22;55036;52.138;5.236;2022-09-03T14:17:25;29.00;27.30
68215;DHT22;55036;52.138;5.236;2022-09-03T14:25:12;28.90;26.60
68215;DHT22;55036;52.138;5.236;2022-09-03T14:27:41;28.80;26.40
68215;DHT22;55036;52.138;5.236;2022-09-03T14:33:06;28.60;26.60
68215;DHT22;55036;52.138;5.236;2022-09-03T14:43:52;28.60;27.20
68215;DHT22;55036;52.138;5.236;2022-09-03T14:46:54;28.70;27.20
68215;DHT22;55036;52.138;5.236;2022-09-03T15:05:35;28.60;27.90
68215;DHT22;55036;52.138;5.236;2022-09-03T15:08:25;28.60;27.90
68215;DHT22;55036;52.138;5.236;2022-09-03T15:10:59;28.60;27.70
68215;DHT22;55036;52.138;5.236;2022-09-03T15:13:41;28.50;28.00
68215;DHT22;55036;52.138;5.236;2022-09-03T15:19:40;28.30;28.00
68215;DHT22;55036;52.138;5.236;2022-09-03T15:30:15;28.20;28.40
68215;DHT22;55036;52.138;5.236;2022-09-03T15:36:08;28.10;28.60
68215;DHT22;55036;52.138;5.236;2022-09-03T15:38:55;28.10;28.50
68215;DHT22;55036;52.138;5.236;2022-09-03T15:41:27;28.00;28.50
68215;DHT22;55036;52.138;5.236;2022-09-03T15:43:58;27.90;28.60
68215;DHT22;55036;52.138;5.236;2022-09-03T15:46:51;28.00;28.90
68215;DHT22;55036;52.138;5.236;2022-09-03T15:55:10;27.80;29.20
68215;DHT22;55036;52.138;5.236;2022-09-03T15:57:40;27.90;29.00
68215;DHT22;55036;52.138;5.236;2022-09-03T16:00:20;27.90;29.10
68215;DHT22;55036;52.138;5.236;2022-09-03T16:03:09;27.80;29.10
68215;DHT22;55036;52.138;5.236;2022-09-03T16:05:47;27.70;29.30
68215;DHT22;55036;52.138;5.236;2022-09-03T16:08:31;27.80;28.90
68215;DHT22;55036;52.138;5.236;2022-09-03T16:11:12;27.90;29.10
68215;DHT22;55036;52.138;5.236;2022-09-03T16:13:59;27.70;29.20
68215;DHT22;55036;52.138;5.236;2022-09-03T16:16:41;27.70;29.40
68215;DHT22;55036;52.138;5.236;2022-09-03T16:19:28;27.70;29.40
68215;DHT22;55036;52.138;5.236;2022-09-03T16:27:26;27.60;29.70
68215;DHT22;55036;52.138;5.236;2022-09-03T16:30:00;27.70;29.70
68215;DHT22;55036;52.138;5.236;2022-09-03T16:35:23;27.50;29.90
68215;DHT22;55036;52.138;5.236;2022-09-03T16:40:54;27.40;30.00
68215;DHT22;55036;52.138;5.236;2022-09-03T16:43:43;27.40;30.20
68215;DHT22;55036;52.138;5.236;2022-09-03T16:55:17;27.20;30.60
68215;DHT22;55036;52.138;5.236;2022-09-03T16:58:09;27.20;30.80
68215;DHT22;55036;52.138;5.236;2022-09-03T17:00:52;27.10;30.60
68215;DHT22;55036;52.138;5.236;2022-09-03T17:03:45;27.20;30.50
68215;DHT22;55036;52.138;5.236;2022-09-03T17:06:26;27.10;30.60
68215;DHT22;55036;52.138;5.236;2022-09-03T17:09:33;27.10;30.50
68215;DHT22;55036;52.138;5.236;2022-09-03T17:14:58;27.10;30.60
68215;DHT22;55036;52.138;5.236;2022-09-03T17:17:52;27.10;30.60
68215;DHT22;55036;52.138;5.236;2022-09-03T17:26:50;27.10;30.90
68215;DHT22;55036;52.138;5.236;2022-09-03T17:29:29;27.10;30.90
68215;DHT22;55036;52.138;5.236;2022-09-03T17:32:23;27.00;31.00
68215;DHT22;55036;52.138;5.236;2022-09-03T17:35:05;26.90;31.40
68215;DHT22;55036;52.138;5.236;2022-09-03T17:40:40;26.80;31.50
68215;DHT22;55036;52.138;5.236;2022-09-03T17:43:22;26.80;31.40
68215;DHT22;55036;52.138;5.236;2022-09-03T17:46:21;26.80;31.70
68215;DHT22;55036;52.138;5.236;2022-09-03T17:49:14;26.70;31.70
68215;DHT22;55036;52.138;5.236;2022-09-03T17:51:44;26.60;31.80
68215;DHT22;55036;52.138;5.236;2022-09-03T17:59:54;26.40;32.60
68215;DHT22;55036;52.138;5.236;2022-09-03T18:02:44;26.30;32.60
68215;DHT22;55036;52.138;5.236;2022-09-03T18:05:26;26.20;32.80
68215;DHT22;55036;52.138;5.236;2022-09-03T18:08:10;26.10;33.10
68215;DHT22;55036;52.138;5.236;2022-09-03T18:13:59;26.00;33.70
68215;DHT22;55036;52.138;5.236;2022-09-03T18:16:34;25.80;34.20
68215;DHT22;55036;52.138;5.236;2022-09-03T18:19:11;25.70;34.70
68215;DHT22;55036;52.138;5.236;2022-09-03T18:21:46;25.60;35.10
68215;DHT22;55036;52.138;5.236;2022-09-03T18:24:40;25.50;35.60
68215;DHT22;55036;52.138;5.236;2022-09-03T18:27:43;25.40;36.10
68215;DHT22;55036;52.138;5.236;2022-09-03T18:30:32;25.30;36.40
68215;DHT22;55036;52.138;5.236;2022-09-03T18:33:22;25.20;36.80
68215;DHT22;55036;52.138;5.236;2022-09-03T18:36:09;25.10;36.90
68215;DHT22;55036;52.138;5.236;2022-09-03T18:39:11;25.00;37.10
68215;DHT22;55036;52.138;5.236;2022-09-03T18:48:49;24.60;38.00
68215;DHT22;55036;52.138;5.236;2022-09-03T18:55:13;24.40;38.90
68215;DHT22;55036;52.138;5.236;2022-09-03T18:58:23;24.30;39.20
68215;DHT22;55036;52.138;5.236;2022-09-03T19:01:37;24.20;39.60
68215;DHT22;55036;52.138;5.236;2022-09-03T19:04:59;24.10;39.90
68215;DHT22;55036;52.138;5.236;2022-09-03T19:07:56;24.00;40.20
68215;DHT22;55036;52.138;5.236;2022-09-03T19:10:47;23.90;40.70
68215;DHT22;55036;52.138;5.236;2022-09-03T19:13:37;23.80;41.10
68215;DHT22;55036;52.138;5.236;2022-09-03T19:16:31;23.80;42.00
68215;DHT22;55036;52.138;5.236;2022-09-03T19:22:27;23.50;42.30
68215;DHT22;55036;52.138;5.236;2022-09-03T19:25:14;23.40;42.70
68215;DHT22;55036;52.138;5.236;2022-09-03T19:28:13;23.40;43.20
68215;DHT22;55036;52.138;5.236;2022-09-03T19:33:58;23.20;43.60
68215;DHT22;55036;52.138;5.236;2022-09-03T19:39:49;23.10;44.20
68215;DHT22;55036;52.138;5.236;2022-09-03T19:43:09;23.00;44.20
68215;DHT22;55036;52.138;5.236;2022-09-03T19:52:54;22.80;45.10
68215;DHT22;55036;52.138;5.236;2022-09-03T19:55:57;22.70;45.40
68215;DHT22;55036;52.138;5.236;2022-09-03T19:58:55;22.60;45.70
68215;DHT22;55036;52.138;5.236;2022-09-03T20:01:41;22.60;46.10
68215;DHT22;55036;52.138;5.236;2022-09-03T20:04:31;22.50;46.50
68215;DHT22;55036;52.138;5.236;2022-09-03T20:07:18;22.40;46.40
68215;DHT22;55036;52.138;5.236;2022-09-03T20:10:09;22.40;46.40
68215;DHT22;55036;52.138;5.236;2022-09-03T20:13:07;22.30;47.80
68215;DHT22;55036;52.138;5.236;2022-09-03T20:20:57;22.10;47.30
68215;DHT22;55036;52.138;5.236;2022-09-03T20:23:50;22.10;48.50
68215;DHT22;55036;52.138;5.236;2022-09-03T20:26:36;22.00;47.60
68215;DHT22;55036;52.138;5.236;2022-09-03T20:29:22;22.00;47.90
68215;DHT22;55036;52.138;5.236;2022-09-03T20:35:05;21.80;47.90
68215;DHT22;55036;52.138;5.236;2022-09-03T20:38:03;21.80;48.30
68215;DHT22;55036;52.138;5.236;2022-09-03T20:43:50;21.70;48.50